sensor_id;sensor_type;location;lat;lon;timestamp;P1;durP1;ratioP1;P2;durP2;ratioP2
20931;SDS011;10625;49.054;9.348;2022-10-31T05:42:59;52.10;;;20.60;;
20931;SDS011;10625;49.054;9.348;2022-10-31T05:45:26;19.43;;;11.23;;
20931;SDS011;10625;49.054;9.348;2022-10-31T05:47:57;55.73;;;22.47;;
20931;SDS011;10625;49.054;9.348;2022-10-31T05:50:22;47.27;;;20.77;;
20931;SDS011;10625;49.054;9.348;2022-10-31T05:52:54;55.77;;;22.87;;
20931;SDS011;10625;49.054;9.348;2022-10-31T05:55:21;58.83;;;21.60;;
20931;SDS011;10625;49.054;9.348;2022-10-31T05:57:48;48.30;;;20.73;;
20931;SDS011;10625;49.054;9.348;2022-10-31T06:00:16;32.13;;;16.77;;
20931;SDS011;10625;49.054;9.348;2022-10-31T06:02:43;46.30;;;19.90;;
20931;SDS011;10625;49.054;9.348;2022-10-31T06:05:10;49.83;;;22.33;;
20931;SDS011;10625;49.054;9.348;2022-10-31T06:07:38;29.37;;;13.57;;
20931;SDS011;10625;49.054;9.348;2022-10-31T06:10:05;55.53;;;21.17;;
20931;SDS011;10625;49.054;9.348;2022-10-31T06:12:33;56.83;;;21.17;;
20931;SDS011;10625;49.054;9.348;2022-10-31T06:15:07;16.77;;;9.80;;
20931;SDS011;10625;49.054;9.348;2022-10-31T06:17:33;48.43;;;21.43;;
20931;SDS011;10625;49.054;9.348;2022-10-31T06:20:00;48.13;;;20.57;;
20931;SDS011;10625;49.054;9.348;2022-10-31T06:22:27;56.70;;;21.70;;
20931;SDS011;10625;49.054;9.348;2022-10-31T06:24:55;53.47;;;21.40;;
20931;SDS011;10625;49.054;9.348;2022-10-31T06:27:22;18.00;;;10.57;;
20931;SDS011;10625;49.054;9.348;2022-10-31T06:29:50;45.07;;;18.83;;
20931;SDS011;10625;49.054;9.348;2022-10-31T06:32:17;44.00;;;20.03;;
20931;SDS011;10625;49.054;9.348;2022-10-31T06:34:44;43.37;;;18.13;;
20931;SDS011;10625;49.054;9.348;2022-10-31T06:37:13;42.10;;;19.87;;
20931;SDS011;10625;49.054;9.348;2022-10-31T06:39:41;30.13;;;14.60;;
20931;SDS011;10625;49.054;9.348;2022-10-31T06:42:08;42.00;;;18.43;;
20931;SDS011;10625;49.054;9.348;2022-10-31T06:44:35;59.37;;;23.43;;
20931;SDS011;10625;49.054;9.348;2022-10-31T06:47:03;16.93;;;9.73;;
20931;SDS011;10625;49.054;9.348;2022-10-31T06:49:30;50.83;;;21.17;;
20931;SDS011;10625;49.054;9.348;2022-10-31T06:51:59;52.27;;;20.20;;
20931;SDS011;10625;49.054;9.348;2022-10-31T06:54:26;50.67;;;20.73;;
20931;SDS011;10625;49.054;9.348;2022-10-31T06:56:53;45.57;;;18.27;;
20931;SDS011;10625;49.054;9.348;2022-10-31T06:59:21;50.93;;;21.13;;
20931;SDS011;10625;49.054;9.348;2022-10-31T07:01:50;46.83;;;19.63;;
20931;SDS011;10625;49.054;9.348;2022-10-31T07:04:17;51.67;;;20.97;;
20931;SDS011;10625;49.054;9.348;2022-10-31T07:06:44;17.43;;;8.90;;
20931;SDS011;10625;49.054;9.348;2022-10-31T07:09:12;23.37;;;12.17;;
20931;SDS011;10625;49.054;9.348;2022-10-31T07:11:39;18.20;;;10.07;;
20931;SDS011;10625;49.054;9.348;2022-10-31T07:14:06;55.20;;;21.10;;
20931;SDS011;10625;49.054;9.348;2022-10-31T07:16:33;42.53;;;18.57;;
20931;SDS011;10625;49.054;9.348;2022-10-31T07:19:01;10.87;;;7.37;;
20931;SDS011;10625;49.054;9.348;2022-10-31T07:21:28;19.80;;;11.03;;
20931;SDS011;10625;49.054;9.348;2022-10-31T07:23:55;28.67;;;14.20;;
20931;SDS011;10625;49.054;9.348;2022-10-31T07:26:22;85.30;;;23.90;;
20931;SDS011;10625;49.054;9.348;2022-10-31T07:28:50;33.87;;;15.40;;
20931;SDS011;10625;49.054;9.348;2022-10-31T07:31:17;64.23;;;20.90;;
20931;SDS011;10625;49.054;9.348;2022-10-31T07:33:44;37.40;;;16.73;;
20931;SDS011;10625;49.054;9.348;2022-10-31T07:36:11;18.80;;;10.30;;
20931;SDS011;10625;49.054;9.348;2022-10-31T07:38:39;62.73;;;21.93;;
20931;SDS011;10625;49.054;9.348;2022-10-31T07:41:06;29.30;;;14.60;;
20931;SDS011;10625;49.054;9.348;2022-10-31T07:43:33;85.73;;;22.80;;
20931;SDS011;10625;49.054;9.348;2022-10-31T07:46:00;41.80;;;18.90;;
20931;SDS011;10625;49.054;9.348;2022-10-31T07:48:28;58.97;;;20.83;;
20931;SDS011;10625;49.054;9.348;2022-10-31T07:50:55;125.23;;;25.60;;
20931;SDS011;10625;49.054;9.348;2022-10-31T07:53:22;95.33;;;23.73;;
20931;SDS011;10625;49.054;9.348;2022-10-31T07:55:50;131.90;;;24.40;;
20931;SDS011;10625;49.054;9.348;2022-10-31T07:58:17;40.50;;;17.30;;
20931;SDS011;10625;49.054;9.348;2022-10-31T08:00:45;113.57;;;21.77;;
20931;SDS011;10625;49.054;9.348;2022-10-31T08:03:13;87.73;;;21.00;;
20931;SDS011;10625;49.054;9.348;2022-10-31T08:05:41;56.03;;;18.17;;
20931;SDS011;10625;49.054;9.348;2022-10-31T08:08:08;22.60;;;11.80;;
20931;SDS011;10625;49.054;9.348;2022-10-31T08:10:36;71.60;;;19.03;;
20931;SDS011;10625;49.054;9.348;2022-10-31T08:13:04;67.03;;;16.40;;
20931;SDS011;10625;49.054;9.348;2022-10-31T08:15:32;39.23;;;17.13;;
20931;SDS011;10625;49.054;9.348;2022-10-31T08:18:01;28.20;;;15.33;;
20931;SDS011;10625;49.054;9.348;2022-10-31T08:20:28;25.20;;;15.23;;
20931;SDS011;10625;49.054;9.348;2022-10-31T08:22:56;26.67;;;14.93;;
20931;SDS011;10625;49.054;9.348;2022-10-31T08:25:24;20.53;;;13.30;;
20931;SDS011;10625;49.054;9.348;2022-10-31T08:27:52;16.77;;;11.30;;
20931;SDS011;10625;49.054;9.348;2022-10-31T08:30:20;14.03;;;10.30;;
20931;SDS011;10625;49.054;9.348;2022-10-31T08:32:47;14.23;;;9.07;;
20931;SDS011;10625;49.054;9.348;2022-10-31T08:35:16;14.13;;;9.30;;
20931;SDS011;10625;49.054;9.348;2022-10-31T08:37:43;15.87;;;10.53;;
20931;SDS011;10625;49.054;9.348;2022-10-31T08:40:11;17.80;;;10.17;;
20931;SDS011;10625;49.054;9.348;2022-10-31T08:42:39;16.27;;;10.23;;
20931;SDS011;10625;49.054;9.348;2022-10-31T08:45:06;12.63;;;9.40;;
20931;SDS011;10625;49.054;9.348;2022-10-31T08:47:33;13.77;;;9.50;;
20931;SDS011;10625;49.054;9.348;2022-10-31T08:50:01;13.80;;;10.40;;
20931;SDS011;10625;49.054;9.348;2022-10-31T08:52:28;14.90;;;10.33;;
20931;SDS011;10625;49.054;9.348;2022-10-31T08:56:30;15.33;;;10.63;;
20931;SDS011;10625;49.054;9.348;2022-10-31T08:58:57;12.07;;;9.97;;
20931;SDS011;10625;49.054;9.348;2022-10-31T09:01:24;14.33;;;10.07;;
20931;SDS011;10625;49.054;9.348;2022-10-31T09:03:52;18.27;;;11.17;;
20931;SDS011;10625;49.054;9.348;2022-10-31T09:06:19;18.40;;;11.73;;
20931;SDS011;10625;49.054;9.348;2022-10-31T09:08:46;13.47;;;10.60;;
20931;SDS011;10625;49.054;9.348;2022-10-31T09:11:13;16.47;;;10.30;;
20931;SDS011;10625;49.054;9.348;2022-10-31T09:13:41;19.00;;;12.37;;
20931;SDS011;10625;49.054;9.348;2022-10-31T09:16:08;13.97;;;11.00;;
20931;SDS011;10625;49.054;9.348;2022-10-31T09:18:35;15.63;;;10.27;;
20931;SDS011;10625;49.054;9.348;2022-10-31T09:21:03;13.37;;;9.60;;
20931;SDS011;10625;49.054;9.348;2022-10-31T09:23:30;16.37;;;9.93;;
20931;SDS011;10625;49.054;9.348;2022-10-31T09:25:59;18.20;;;9.50;;
20931;SDS011;10625;49.054;9.348;2022-10-31T09:28:26;15.67;;;9.53;;
20931;SDS011;10625;49.054;9.348;2022-10-31T09:30:54;11.23;;;8.43;;
20931;SDS011;10625;49.054;9.348;2022-10-31T09:33:21;14.77;;;8.13;;
20931;SDS011;10625;49.054;9.348;2022-10-31T09:35:49;19.30;;;15.50;;
20931;SDS011;10625;49.054;9.348;2022-10-31T09:38:21;16.73;;;11.97;;
20931;SDS011;10625;49.054;9.348;2022-10-31T09:40:54;14.87;;;7.93;;
20931;SDS011;10625;49.054;9.348;2022-10-31T09:51:11;14.83;;;9.03;;
20931;SDS011;10625;49.054;9.348;2022-10-31T09:53:44;15.23;;;8.43;;
20931;SDS011;10625;49.054;9.348;2022-10-31T09:56:09;14.10;;;8.93;;
20931;SDS011;10625;49.054;9.348;2022-10-31T09:58:41;13.90;;;8.37;;
20931;SDS011;10625;49.054;9.348;2022-10-31T10:01:05;13.13;;;8.63;;
20931;SDS011;10625;49.054;9.348;2022-10-31T10:03:35;13.37;;;7.70;;
20931;SDS011;10625;49.054;9.348;2022-10-31T10:06:14;14.37;;;9.47;;
20931;SDS011;10625;49.054;9.348;2022-10-31T10:08:42;18.00;;;9.30;;
20931;SDS011;10625;49.054;9.348;2022-10-31T10:11:32;15.70;;;9.07;;
20931;SDS011;10625;49.054;9.348;2022-10-31T10:14:05;14.00;;;9.63;;
20931;SDS011;10625;49.054;9.348;2022-10-31T10:16:47;11.47;;;8.13;;
20931;SDS011;10625;49.054;9.348;2022-10-31T10:21:55;17.40;;;9.93;;
20931;SDS011;10625;49.054;9.348;2022-10-31T10:24:26;14.27;;;9.80;;
20931;SDS011;10625;49.054;9.348;2022-10-31T10:29:42;11.47;;;8.20;;
20931;SDS011;10625;49.054;9.348;2022-10-31T10:32:11;14.27;;;8.10;;
20931;SDS011;10625;49.054;9.348;2022-10-31T10:34:38;12.53;;;8.43;;
20931;SDS011;10625;49.054;9.348;2022-10-31T10:39:48;14.40;;;10.00;;
20931;SDS011;10625;49.054;9.348;2022-10-31T10:42:15;14.97;;;11.90;;
20931;SDS011;10625;49.054;9.348;2022-10-31T10:45:13;14.83;;;10.70;;
20931;SDS011;10625;49.054;9.348;2022-10-31T10:47:56;16.77;;;11.80;;
20931;SDS011;10625;49.054;9.348;2022-10-31T10:50:25;15.67;;;9.70;;
20931;SDS011;10625;49.054;9.348;2022-10-31T10:53:02;14.00;;;9.47;;
20931;SDS011;10625;49.054;9.348;2022-10-31T10:55:40;16.23;;;9.43;;
20931;SDS011;10625;49.054;9.348;2022-10-31T10:58:07;12.73;;;8.53;;
20931;SDS011;10625;49.054;9.348;2022-10-31T11:00:39;11.37;;;7.93;;
20931;SDS011;10625;49.054;9.348;2022-10-31T11:03:07;13.73;;;8.97;;
20931;SDS011;10625;49.054;9.348;2022-10-31T11:05:39;14.90;;;8.90;;
20931;SDS011;10625;49.054;9.348;2022-10-31T11:08:06;12.23;;;8.53;;
20931;SDS011;10625;49.054;9.348;2022-10-31T11:10:34;13.43;;;8.70;;
20931;SDS011;10625;49.054;9.348;2022-10-31T11:15:32;9.63;;;7.13;;
20931;SDS011;10625;49.054;9.348;2022-10-31T11:17:59;16.70;;;9.47;;
20931;SDS011;10625;49.054;9.348;2022-10-31T11:20:28;13.63;;;7.60;;
20931;SDS011;10625;49.054;9.348;2022-10-31T11:23:03;15.07;;;8.17;;
20931;SDS011;10625;49.054;9.348;2022-10-31T11:25:27;15.13;;;8.40;;
20931;SDS011;10625;49.054;9.348;2022-10-31T11:28:04;12.17;;;8.13;;
20931;SDS011;10625;49.054;9.348;2022-10-31T11:30:35;13.07;;;7.50;;
20931;SDS011;10625;49.054;9.348;2022-10-31T11:33:00;12.70;;;8.00;;
20931;SDS011;10625;49.054;9.348;2022-10-31T11:35:28;12.70;;;7.80;;
20931;SDS011;10625;49.054;9.348;2022-10-31T11:37:56;14.43;;;7.60;;
20931;SDS011;10625;49.054;9.348;2022-10-31T11:40:25;14.20;;;7.83;;
20931;SDS011;10625;49.054;9.348;2022-10-31T11:42:55;11.37;;;7.17;;
20931;SDS011;10625;49.054;9.348;2022-10-31T11:47:51;12.33;;;7.70;;
20931;SDS011;10625;49.054;9.348;2022-10-31T11:50:33;12.97;;;7.17;;
20931;SDS011;10625;49.054;9.348;2022-10-31T11:52:50;10.67;;;6.47;;
20931;SDS011;10625;49.054;9.348;2022-10-31T11:55:31;10.23;;;6.57;;
20931;SDS011;10625;49.054;9.348;2022-10-31T11:57:58;13.50;;;7.13;;
20931;SDS011;10625;49.054;9.348;2022-10-31T12:00:30;12.13;;;7.50;;
20931;SDS011;10625;49.054;9.348;2022-10-31T12:05:33;15.87;;;8.63;;
20931;SDS011;10625;49.054;9.348;2022-10-31T12:08:00;13.17;;;7.83;;
20931;SDS011;10625;49.054;9.348;2022-10-31T12:10:31;12.40;;;8.23;;
20931;SDS011;10625;49.054;9.348;2022-10-31T12:15:32;12.07;;;8.10;;
20931;SDS011;10625;49.054;9.348;2022-10-31T12:23:48;37.23;;;23.13;;
20931;SDS011;10625;49.054;9.348;2022-10-31T12:26:23;14.87;;;10.70;;
20931;SDS011;10625;49.054;9.348;2022-10-31T12:31:28;14.23;;;7.30;;
20931;SDS011;10625;49.054;9.348;2022-10-31T12:39:05;12.00;;;6.90;;
20931;SDS011;10625;49.054;9.348;2022-10-31T12:41:36;10.67;;;7.40;;
20931;SDS011;10625;49.054;9.348;2022-10-31T12:44:05;13.83;;;7.67;;
20931;SDS011;10625;49.054;9.348;2022-10-31T12:46:40;10.43;;;7.30;;
20931;SDS011;10625;49.054;9.348;2022-10-31T12:49:06;13.27;;;7.27;;
20931;SDS011;10625;49.054;9.348;2022-10-31T12:57:02;11.60;;;7.47;;
20931;SDS011;10625;49.054;9.348;2022-10-31T12:59:28;12.23;;;7.83;;
20931;SDS011;10625;49.054;9.348;2022-10-31T13:02:10;12.50;;;6.93;;
20931;SDS011;10625;49.054;9.348;2022-10-31T13:07:55;9.07;;;6.20;;
20931;SDS011;10625;49.054;9.348;2022-10-31T13:09:38;10.30;;;7.03;;
20931;SDS011;10625;49.054;9.348;2022-10-31T13:12:10;14.37;;;7.93;;
20931;SDS011;10625;49.054;9.348;2022-10-31T13:14:41;14.07;;;6.93;;
20931;SDS011;10625;49.054;9.348;2022-10-31T13:17:16;14.63;;;7.40;;
20931;SDS011;10625;49.054;9.348;2022-10-31T13:19:39;13.23;;;7.07;;
20931;SDS011;10625;49.054;9.348;2022-10-31T13:24:36;14.13;;;7.47;;
20931;SDS011;10625;49.054;9.348;2022-10-31T13:27:24;12.10;;;7.87;;
20931;SDS011;10625;49.054;9.348;2022-10-31T13:29:39;11.90;;;7.83;;
20931;SDS011;10625;49.054;9.348;2022-10-31T13:32:06;12.17;;;7.43;;
20931;SDS011;10625;49.054;9.348;2022-10-31T13:34:38;11.57;;;8.10;;
20931;SDS011;10625;49.054;9.348;2022-10-31T13:42:40;11.93;;;7.07;;
20931;SDS011;10625;49.054;9.348;2022-10-31T13:45:12;11.40;;;6.93;;
20931;SDS011;10625;49.054;9.348;2022-10-31T13:47:40;11.43;;;6.47;;
20931;SDS011;10625;49.054;9.348;2022-10-31T13:50:21;10.13;;;6.30;;
20931;SDS011;10625;49.054;9.348;2022-10-31T13:52:49;12.70;;;6.97;;
20931;SDS011;10625;49.054;9.348;2022-10-31T13:55:36;12.43;;;7.53;;
20931;SDS011;10625;49.054;9.348;2022-10-31T13:58:04;11.33;;;7.00;;
20931;SDS011;10625;49.054;9.348;2022-10-31T14:00:31;12.83;;;6.57;;
20931;SDS011;10625;49.054;9.348;2022-10-31T14:03:00;11.80;;;6.07;;
20931;SDS011;10625;49.054;9.348;2022-10-31T14:05:32;13.03;;;7.37;;
20931;SDS011;10625;49.054;9.348;2022-10-31T14:08:04;11.47;;;7.50;;
20931;SDS011;10625;49.054;9.348;2022-10-31T14:10:38;14.57;;;8.03;;
20931;SDS011;10625;49.054;9.348;2022-10-31T14:13:07;13.93;;;7.73;;
20931;SDS011;10625;49.054;9.348;2022-10-31T14:15:34;11.40;;;7.60;;
20931;SDS011;10625;49.054;9.348;2022-10-31T14:18:03;13.90;;;7.60;;
20931;SDS011;10625;49.054;9.348;2022-10-31T14:20:36;13.13;;;7.53;;
20931;SDS011;10625;49.054;9.348;2022-10-31T14:25:48;11.10;;;5.97;;
20931;SDS011;10625;49.054;9.348;2022-10-31T14:28:20;10.13;;;6.60;;
20931;SDS011;10625;49.054;9.348;2022-10-31T14:30:51;13.30;;;7.13;;
20931;SDS011;10625;49.054;9.348;2022-10-31T14:33:19;11.00;;;6.37;;
20931;SDS011;10625;49.054;9.348;2022-10-31T14:48:49;12.80;;;6.40;;
20931;SDS011;10625;49.054;9.348;2022-10-31T14:51:15;12.07;;;7.37;;
20931;SDS011;10625;49.054;9.348;2022-10-31T14:53:46;12.93;;;6.90;;
20931;SDS011;10625;49.054;9.348;2022-10-31T14:56:11;11.80;;;6.90;;
20931;SDS011;10625;49.054;9.348;2022-10-31T14:58:45;11.17;;;6.63;;
20931;SDS011;10625;49.054;9.348;2022-10-31T15:01:21;11.90;;;6.70;;
20931;SDS011;10625;49.054;9.348;2022-10-31T15:03:47;13.47;;;7.43;;
20931;SDS011;10625;49.054;9.348;2022-10-31T15:06:16;15.93;;;6.93;;
20931;SDS011;10625;49.054;9.348;2022-10-31T15:08:45;17.20;;;8.17;;
20931;SDS011;10625;49.054;9.348;2022-10-31T15:11:16;9.27;;;6.30;;
20931;SDS011;10625;49.054;9.348;2022-10-31T15:13:54;12.17;;;7.73;;
20931;SDS011;10625;49.054;9.348;2022-10-31T15:16:32;16.10;;;7.50;;
20931;SDS011;10625;49.054;9.348;2022-10-31T15:19:05;13.47;;;7.20;;
20931;SDS011;10625;49.054;9.348;2022-10-31T15:21:29;14.80;;;8.00;;
20931;SDS011;10625;49.054;9.348;2022-10-31T15:23:57;17.10;;;8.07;;
20931;SDS011;10625;49.054;9.348;2022-10-31T15:26:29;12.07;;;7.07;;
20931;SDS011;10625;49.054;9.348;2022-10-31T15:29:03;11.90;;;7.67;;
20931;SDS011;10625;49.054;9.348;2022-10-31T15:31:30;14.73;;;8.43;;
20931;SDS011;10625;49.054;9.348;2022-10-31T15:34:00;14.80;;;6.40;;
20931;SDS011;10625;49.054;9.348;2022-10-31T15:36:27;12.97;;;7.77;;
20931;SDS011;10625;49.054;9.348;2022-10-31T15:38:55;11.97;;;7.67;;
20931;SDS011;10625;49.054;9.348;2022-10-31T15:41:24;9.43;;;8.00;;
20931;SDS011;10625;49.054;9.348;2022-10-31T15:43:51;13.03;;;7.93;;
20931;SDS011;10625;49.054;9.348;2022-10-31T15:46:18;11.93;;;7.93;;
20931;SDS011;10625;49.054;9.348;2022-10-31T15:48:46;11.53;;;8.00;;
20931;SDS011;10625;49.054;9.348;2022-10-31T15:51:14;14.17;;;8.73;;
20931;SDS011;10625;49.054;9.348;2022-10-31T15:53:43;13.47;;;9.20;;
20931;SDS011;10625;49.054;9.348;2022-10-31T15:56:18;13.97;;;8.93;;
20931;SDS011;10625;49.054;9.348;2022-10-31T15:58:44;13.60;;;7.60;;
20931;SDS011;10625;49.054;9.348;2022-10-31T16:01:21;17.07;;;8.97;;
20931;SDS011;10625;49.054;9.348;2022-10-31T16:06:36;16.27;;;10.93;;
20931;SDS011;10625;49.054;9.348;2022-10-31T16:09:04;19.70;;;11.07;;
20931;SDS011;10625;49.054;9.348;2022-10-31T16:11:34;18.00;;;11.40;;
20931;SDS011;10625;49.054;9.348;2022-10-31T16:14:05;15.33;;;10.20;;
20931;SDS011;10625;49.054;9.348;2022-10-31T16:16:34;19.57;;;11.13;;
20931;SDS011;10625;49.054;9.348;2022-10-31T16:19:03;16.03;;;10.50;;
20931;SDS011;10625;49.054;9.348;2022-10-31T16:21:35;18.03;;;11.07;;
20931;SDS011;10625;49.054;9.348;2022-10-31T16:24:49;18.27;;;10.47;;
20931;SDS011;10625;49.054;9.348;2022-10-31T16:26:31;21.63;;;12.27;;
20931;SDS011;10625;49.054;9.348;2022-10-31T16:28:59;20.50;;;13.13;;
20931;SDS011;10625;49.054;9.348;2022-10-31T16:31:28;16.83;;;11.90;;
20931;SDS011;10625;49.054;9.348;2022-10-31T16:34:03;18.17;;;11.07;;
20931;SDS011;10625;49.054;9.348;2022-10-31T16:36:31;22.40;;;13.83;;
20931;SDS011;10625;49.054;9.348;2022-10-31T16:38:58;22.73;;;14.30;;
20931;SDS011;10625;49.054;9.348;2022-10-31T16:41:26;23.10;;;13.80;;
20931;SDS011;10625;49.054;9.348;2022-10-31T16:43:53;27.20;;;16.20;;
20931;SDS011;10625;49.054;9.348;2022-10-31T16:46:24;24.43;;;15.83;;
20931;SDS011;10625;49.054;9.348;2022-10-31T16:48:52;25.33;;;15.17;;
20931;SDS011;10625;49.054;9.348;2022-10-31T16:51:20;28.90;;;15.90;;
20931;SDS011;10625;49.054;9.348;2022-10-31T16:53:48;24.77;;;15.27;;
20931;SDS011;10625;49.054;9.348;2022-10-31T16:56:18;21.83;;;15.53;;
20931;SDS011;10625;49.054;9.348;2022-10-31T16:58:45;22.30;;;14.20;;
20931;SDS011;10625;49.054;9.348;2022-10-31T17:01:12;26.70;;;15.73;;
20931;SDS011;10625;49.054;9.348;2022-10-31T17:03:39;23.47;;;15.83;;
20931;SDS011;10625;49.054;9.348;2022-10-31T17:06:10;25.47;;;15.77;;
20931;SDS011;10625;49.054;9.348;2022-10-31T17:08:36;24.23;;;14.50;;
20931;SDS011;10625;49.054;9.348;2022-10-31T17:11:03;21.63;;;14.03;;
20931;SDS011;10625;49.054;9.348;2022-10-31T17:13:31;22.63;;;13.27;;
20931;SDS011;10625;49.054;9.348;2022-10-31T17:16:00;20.13;;;12.57;;
20931;SDS011;10625;49.054;9.348;2022-10-31T17:18:28;23.80;;;15.70;;
20931;SDS011;10625;49.054;9.348;2022-10-31T17:20:56;25.37;;;14.90;;
20931;SDS011;10625;49.054;9.348;2022-10-31T17:23:24;23.67;;;14.60;;
20931;SDS011;10625;49.054;9.348;2022-10-31T17:25:52;22.70;;;15.70;;
20931;SDS011;10625;49.054;9.348;2022-10-31T17:28:19;25.60;;;14.97;;
20931;SDS011;10625;49.054;9.348;2022-10-31T17:30:46;27.83;;;16.03;;
20931;SDS011;10625;49.054;9.348;2022-10-31T17:33:14;27.17;;;16.43;;
20931;SDS011;10625;49.054;9.348;2022-10-31T17:35:42;27.43;;;15.70;;
20931;SDS011;10625;49.054;9.348;2022-10-31T17:38:10;16.70;;;10.07;;
20931;SDS011;10625;49.054;9.348;2022-10-31T17:40:38;23.63;;;13.77;;
20931;SDS011;10625;49.054;9.348;2022-10-31T17:43:07;28.53;;;15.10;;
20931;SDS011;10625;49.054;9.348;2022-10-31T17:45:37;24.63;;;15.20;;
20931;SDS011;10625;49.054;9.348;2022-10-31T17:48:03;25.83;;;14.30;;
20931;SDS011;10625;49.054;9.348;2022-10-31T17:50:31;26.50;;;15.30;;
20931;SDS011;10625;49.054;9.348;2022-10-31T17:52:58;29.13;;;16.10;;
20931;SDS011;10625;49.054;9.348;2022-10-31T17:55:25;20.40;;;12.57;;
20931;SDS011;10625;49.054;9.348;2022-10-31T17:57:53;29.97;;;16.77;;
20931;SDS011;10625;49.054;9.348;2022-10-31T18:00:20;23.60;;;15.17;;
20931;SDS011;10625;49.054;9.348;2022-10-31T18:02:49;32.73;;;17.27;;
20931;SDS011;10625;49.054;9.348;2022-10-31T18:05:16;31.33;;;17.80;;
20931;SDS011;10625;49.054;9.348;2022-10-31T18:07:44;29.03;;;17.07;;
20931;SDS011;10625;49.054;9.348;2022-10-31T18:10:11;17.37;;;11.67;;
20931;SDS011;10625;49.054;9.348;2022-10-31T18:12:38;31.30;;;17.87;;
20931;SDS011;10625;49.054;9.348;2022-10-31T18:15:06;28.57;;;17.90;;
20931;SDS011;10625;49.054;9.348;2022-10-31T18:17:33;39.67;;;20.47;;
20931;SDS011;10625;49.054;9.348;2022-10-31T18:20:00;26.77;;;15.27;;
20931;SDS011;10625;49.054;9.348;2022-10-31T18:22:28;26.87;;;14.97;;
20931;SDS011;10625;49.054;9.348;2022-10-31T18:24:55;30.77;;;18.17;;
20931;SDS011;10625;49.054;9.348;2022-10-31T18:27:22;21.00;;;13.47;;
20931;SDS011;10625;49.054;9.348;2022-10-31T18:29:50;31.93;;;18.87;;
20931;SDS011;10625;49.054;9.348;2022-10-31T18:32:17;36.33;;;17.60;;
20931;SDS011;10625;49.054;9.348;2022-10-31T18:34:44;28.43;;;16.43;;
20931;SDS011;10625;49.054;9.348;2022-10-31T18:37:11;26.53;;;15.93;;
20931;SDS011;10625;49.054;9.348;2022-10-31T18:39:39;27.77;;;16.37;;
20931;SDS011;10625;49.054;9.348;2022-10-31T18:42:06;35.03;;;19.60;;
20931;SDS011;10625;49.054;9.348;2022-10-31T18:44:33;40.20;;;19.63;;
20931;SDS011;10625;49.054;9.348;2022-10-31T18:47:01;34.47;;;19.97;;
20931;SDS011;10625;49.054;9.348;2022-10-31T18:49:28;35.67;;;20.63;;
20931;SDS011;10625;49.054;9.348;2022-10-31T18:51:57;31.00;;;15.30;;
20931;SDS011;10625;49.054;9.348;2022-10-31T18:54:25;33.27;;;19.23;;
20931;SDS011;10625;49.054;9.348;2022-10-31T18:56:52;34.67;;;19.33;;
20931;SDS011;10625;49.054;9.348;2022-10-31T18:59:21;38.63;;;20.47;;
20931;SDS011;10625;49.054;9.348;2022-10-31T19:01:48;37.70;;;21.57;;
20931;SDS011;10625;49.054;9.348;2022-10-31T19:04:15;45.43;;;23.23;;
20931;SDS011;10625;49.054;9.348;2022-10-31T19:06:42;46.23;;;24.10;;
20931;SDS011;10625;49.054;9.348;2022-10-31T19:09:10;29.27;;;17.53;;
20931;SDS011;10625;49.054;9.348;2022-10-31T19:11:37;24.00;;;16.27;;
20931;SDS011;10625;49.054;9.348;2022-10-31T19:14:05;43.17;;;23.47;;
20931;SDS011;10625;49.054;9.348;2022-10-31T19:16:33;34.10;;;20.43;;
20931;SDS011;10625;49.054;9.348;2022-10-31T19:19:01;25.57;;;14.17;;
20931;SDS011;10625;49.054;9.348;2022-10-31T19:21:28;42.00;;;24.10;;
20931;SDS011;10625;49.054;9.348;2022-10-31T19:23:57;49.73;;;27.87;;
20931;SDS011;10625;49.054;9.348;2022-10-31T19:26:25;47.00;;;26.17;;
20931;SDS011;10625;49.054;9.348;2022-10-31T19:28:53;31.83;;;18.87;;
20931;SDS011;10625;49.054;9.348;2022-10-31T19:31:21;47.33;;;24.77;;
20931;SDS011;10625;49.054;9.348;2022-10-31T19:33:49;52.90;;;27.03;;
20931;SDS011;10625;49.054;9.348;2022-10-31T19:36:17;32.83;;;20.33;;
20931;SDS011;10625;49.054;9.348;2022-10-31T19:38:45;46.57;;;25.40;;
20931;SDS011;10625;49.054;9.348;2022-10-31T19:41:15;44.67;;;26.67;;
20931;SDS011;10625;49.054;9.348;2022-10-31T19:43:42;38.80;;;24.23;;
20931;SDS011;10625;49.054;9.348;2022-10-31T19:46:10;51.43;;;28.67;;
20931;SDS011;10625;49.054;9.348;2022-10-31T19:48:38;58.70;;;33.00;;
20931;SDS011;10625;49.054;9.348;2022-10-31T19:51:06;70.33;;;38.90;;
20931;SDS011;10625;49.054;9.348;2022-10-31T19:53:34;55.20;;;40.17;;
20931;SDS011;10625;49.054;9.348;2022-10-31T19:56:02;77.67;;;45.57;;
20931;SDS011;10625;49.054;9.348;2022-10-31T19:58:30;66.33;;;37.63;;
20931;SDS011;10625;49.054;9.348;2022-10-31T20:00:58;64.70;;;35.07;;
20931;SDS011;10625;49.054;9.348;2022-10-31T20:03:25;63.67;;;35.30;;
20931;SDS011;10625;49.054;9.348;2022-10-31T20:05:53;55.10;;;32.27;;
20931;SDS011;10625;49.054;9.348;2022-10-31T20:08:20;72.10;;;38.53;;
20931;SDS011;10625;49.054;9.348;2022-10-31T20:10:54;31.53;;;21.00;;
20931;SDS011;10625;49.054;9.348;2022-10-31T20:13:21;55.60;;;30.33;;
20931;SDS011;10625;49.054;9.348;2022-10-31T20:15:49;69.17;;;37.20;;
20931;SDS011;10625;49.054;9.348;2022-10-31T20:18:17;59.70;;;32.93;;
20931;SDS011;10625;49.054;9.348;2022-10-31T20:20:44;57.23;;;33.90;;
20931;SDS011;10625;49.054;9.348;2022-10-31T20:23:11;26.70;;;18.07;;
20931;SDS011;10625;49.054;9.348;2022-10-31T20:25:45;64.67;;;34.37;;
20931;SDS011;10625;49.054;9.348;2022-10-31T20:28:07;34.37;;;24.20;;
20931;SDS011;10625;49.054;9.348;2022-10-31T20:30:35;31.20;;;21.67;;
20931;SDS011;10625;49.054;9.348;2022-10-31T20:33:02;52.30;;;34.53;;
20931;SDS011;10625;49.054;9.348;2022-10-31T20:35:29;52.40;;;33.27;;
20931;SDS011;10625;49.054;9.348;2022-10-31T20:37:56;55.50;;;35.00;;
20931;SDS011;10625;49.054;9.348;2022-10-31T20:40:24;58.73;;;34.73;;
20931;SDS011;10625;49.054;9.348;2022-10-31T20:42:51;54.80;;;33.43;;
20931;SDS011;10625;49.054;9.348;2022-10-31T20:45:18;33.73;;;20.67;;
20931;SDS011;10625;49.054;9.348;2022-10-31T20:47:45;57.20;;;34.87;;
20931;SDS011;10625;49.054;9.348;2022-10-31T20:50:13;59.07;;;36.57;;
20931;SDS011;10625;49.054;9.348;2022-10-31T20:52:40;65.50;;;34.77;;
20931;SDS011;10625;49.054;9.348;2022-10-31T20:55:07;34.47;;;24.03;;
20931;SDS011;10625;49.054;9.348;2022-10-31T20:57:35;33.30;;;22.53;;
20931;SDS011;10625;49.054;9.348;2022-10-31T21:00:02;25.13;;;17.67;;
20931;SDS011;10625;49.054;9.348;2022-10-31T21:02:30;28.63;;;18.03;;
20931;SDS011;10625;49.054;9.348;2022-10-31T21:04:57;59.00;;;31.97;;
20931;SDS011;10625;49.054;9.348;2022-10-31T21:07:24;54.50;;;31.37;;
20931;SDS011;10625;49.054;9.348;2022-10-31T21:09:52;33.03;;;20.13;;
20931;SDS011;10625;49.054;9.348;2022-10-31T21:12:19;43.20;;;26.13;;
20931;SDS011;10625;49.054;9.348;2022-10-31T21:14:46;62.83;;;33.17;;
20931;SDS011;10625;49.054;9.348;2022-10-31T21:17:13;70.13;;;35.97;;
20931;SDS011;10625;49.054;9.348;2022-10-31T21:19:41;58.17;;;32.50;;
20931;SDS011;10625;49.054;9.348;2022-10-31T21:22:08;24.73;;;16.70;;
20931;SDS011;10625;49.054;9.348;2022-10-31T21:24:35;70.90;;;31.80;;
20931;SDS011;10625;49.054;9.348;2022-10-31T21:27:02;56.97;;;30.83;;
20931;SDS011;10625;49.054;9.348;2022-10-31T21:29:30;27.27;;;18.20;;
20931;SDS011;10625;49.054;9.348;2022-10-31T21:31:57;33.03;;;21.03;;